Time;durP1;ratioP1;P1;durP2;ratioP2;P2;SDS_P1;SDS_P2;PMS_P1;PMS_P2;Temp;Humidity;BMP_temperature;BMP_pressure;BME280_temperature;BME280_humidity;BME280_pressure;Samples;Min_cycle;Max_cycle;Signal;HPM_P1;HPM_P2
2022/08/28 00:01:59;;;;;;;40.10;22.70;;;;;;;21.12;79.72;99855.69;5008799;28;20042;-84
2022/08/28 00:04:26;;;;;;;36.40;20.85;;;;;;;21.10;79.65;99852.34;5000145;28;20042;-84
2022/08/28 00:06:52;;;;;;;36.90;21.02;;;;;;;21.09;79.67;99856.06;4969476;28;20077;-84
2022/08/28 00:09:19;;;;;;;35.97;22.02;;;;;;;21.05;79.43;99846.72;4978280;28;20054;-84
2022/08/28 00:11:47;;;;;;;38.80;21.17;;;;;;;21.07;79.75;99850.06;4950565;28;20056;-84
2022/08/28 00:14:14;;;;;;;42.20;23.10;;;;;;;21.02;79.89;99851.50;4978878;28;20077;-84
2022/08/28 00:16:40;;;;;;;41.03;21.98;;;;;;;21.02;79.75;99853.38;5001713;28;20050;-84
2022/08/28 00:19:09;;;;;;;37.78;21.52;;;;;;;21.02;79.60;99856.88;4995495;28;20585;-85
2022/08/28 00:21:36;;;;;;;39.97;20.63;;;;;;;21.03;79.26;99857.72;4961015;28;20101;-85
2022/08/28 00:24:03;;;;;;;36.78;18.88;;;;;;;20.97;79.44;99853.97;4999884;28;20042;-84
2022/08/28 00:29:15;;;;;;;31.15;18.00;;;;;;;20.92;79.00;99847.53;4938693;28;20039;-84
2022/08/28 00:31:43;;;;;;;29.83;17.38;;;;;;;20.92;78.74;99848.34;4968855;28;20052;-84
2022/08/28 00:34:10;;;;;;;23.40;16.17;;;;;;;20.87;79.05;99848.13;5000601;28;20049;-84
2022/08/28 00:36:42;;;;;;;35.05;19.00;;;;;;;20.80;78.55;99848.09;4982071;28;20527;-84
2022/08/28 00:39:09;;;;;;;34.33;17.13;;;;;;;20.90;78.64;99857.69;4966916;28;20046;-84
2022/08/28 00:41:39;;;;;;;28.90;16.90;;;;;;;20.85;78.23;99855.59;5000274;28;20461;-84
2022/08/28 00:44:14;;;;;;;30.02;17.48;;;;;;;20.80;78.46;99855.34;4982399;28;20054;-84
2022/08/28 00:46:43;;;;;;;27.60;16.52;;;;;;;20.79;78.70;99861.78;4998498;28;20049;-85
2022/08/28 00:49:12;;;;;;;34.53;18.42;;;;;;;20.80;79.00;99858.06;4984707;28;20121;-84
2022/08/28 00:54:26;;;;;;;33.35;18.90;;;;;;;20.77;78.84;99855.75;4977872;28;20093;-84
2022/08/28 00:56:54;;;;;;;35.75;19.58;;;;;;;20.76;78.91;99856.78;4982248;28;20560;-84
2022/08/28 00:59:23;;;;;;;39.35;20.13;;;;;;;20.74;79.04;99853.47;4984310;28;20098;-86
2022/08/28 01:01:53;;;;;;;32.67;20.10;;;;;;;20.75;79.30;99850.56;4968781;28;20043;-84
2022/08/28 01:04:22;;;;;;;37.78;20.00;;;;;;;20.75;79.30;99847.84;4998504;28;20126;-84
2022/08/28 01:06:52;;;;;;;35.28;19.33;;;;;;;20.74;79.50;99857.00;5000180;28;20521;-84
2022/08/28 01:09:22;;;;;;;34.30;20.05;;;;;;;20.80;79.45;99856.19;4984006;28;20046;-85
2022/08/28 01:11:52;;;;;;;43.15;21.70;;;;;;;20.76;79.68;99852.25;4981743;28;20061;-85
2022/08/28 01:14:21;;;;;;;39.35;21.38;;;;;;;20.74;79.61;99853.47;4976634;28;20376;-85
2022/08/28 01:16:56;;;;;;;39.55;21.73;;;;;;;20.78;79.36;99855.53;4973710;28;20056;-85
2022/08/28 01:19:36;;;;;;;39.53;22.52;;;;;;;20.70;80.09;99857.59;4998376;28;20953;-85
2022/08/28 01:22:16;;;;;;;44.15;24.30;;;;;;;20.74;80.02;99854.31;4997425;28;20147;-86
2022/08/28 01:24:44;;;;;;;39.20;22.77;;;;;;;20.82;79.59;99847.91;5014663;28;20050;-85
2022/08/28 01:27:11;;;;;;;39.15;22.15;;;;;;;20.79;79.89;99848.31;4965750;28;20406;-84
2022/08/28 01:29:38;;;;;;;44.67;22.27;;;;;;;20.78;79.70;99850.16;4981986;28;20047;-85
2022/08/28 01:32:05;;;;;;;37.13;21.02;;;;;;;20.80;79.13;99849.97;4951879;28;20442;-86
2022/08/28 01:34:34;;;;;;;31.42;19.35;;;;;;;20.72;79.30;99850.97;4984325;28;20054;-85
2022/08/28 01:37:02;;;;;;;33.95;19.15;;;;;;;20.69;78.68;99854.06;4990279;28;20554;-84
2022/08/28 01:39:29;;;;;;;31.35;18.63;;;;;;;20.68;78.52;99852.38;4948583;28;20047;-85
2022/08/28 01:41:58;;;;;;;30.88;19.50;;;;;;;20.67;78.46;99856.13;4999874;28;20084;-85
2022/08/28 01:44:26;;;;;;;33.85;18.92;;;;;;;20.62;78.67;99845.09;4968268;28;20450;-85
2022/08/28 01:46:55;;;;;;;34.70;17.77;;;;;;;20.65;78.42;99849.28;4966703;28;20117;-85
2022/08/28 01:49:23;;;;;;;39.80;20.55;;;;;;;20.57;78.62;99847.56;4962600;28;20494;-85
2022/08/28 01:51:50;;;;;;;40.13;19.95;;;;;;;20.59;78.99;99849.03;4998545;28;20053;-85
2022/08/28 01:54:20;;;;;;;40.10;20.73;;;;;;;20.56;79.33;99860.25;4997845;28;20053;-85
2022/08/28 01:56:47;;;;;;;40.42;21.60;;;;;;;20.56;79.07;99860.25;4965865;28;20057;-85
2022/08/28 01:59:15;;;;;;;32.75;19.05;;;;;;;20.53;79.63;99866.00;4964683;28;20109;-85
2022/08/28 02:01:43;;;;;;;39.38;20.25;;;;;;;20.55;79.70;99871.22;4981878;28;20053;-85
2022/08/28 02:04:09;;;;;;;36.28;21.27;;;;;;;20.53;79.88;99865.16;4948404;28;20398;-86
2022/08/28 02:06:36;;;;;;;31.27;19.30;;;;;;;20.54;79.81;99864.13;4981940;28;20053;-84
2022/08/28 02:09:05;;;;;;;35.25;18.80;;;;;;;20.50;80.05;99866.38;4948874;28;20081;-84
2022/08/28 02:11:40;;;;;;;30.65;18.88;;;;;;;20.54;80.13;99873.09;4976317;28;20054;-84
2022/08/28 02:14:10;;;;;;;34.78;19.77;;;;;;;20.54;79.88;99870.41;4980542;28;22532;-84
2022/08/28 02:16:37;;;;;;;40.67;20.88;;;;;;;20.54;80.11;99866.84;5004972;28;20046;-84
2022/08/28 02:19:04;;;;;;;36.13;19.83;;;;;;;20.55;80.08;99871.22;4998630;28;20042;-87
2022/08/28 02:21:31;;;;;;;44.67;21.30;;;;;;;20.55;80.15;99873.91;4982886;28;20453;-86
2022/08/28 02:23:58;;;;;;;41.00;21.90;;;;;;;20.53;80.26;99866.00;5014940;28;20562;-87
2022/08/28 02:26:27;;;;;;;47.33;22.00;;;;;;;20.52;80.38;99872.41;4981287;28;20046;-87
2022/08/28 02:28:54;;;;;;;43.38;22.27;;;;;;;20.52;81.00;99877.00;4967919;28;20042;-86
2022/08/28 02:31:20;;;;;;;36.60;21.05;;;;;;;20.49;80.94;99872.81;5004298;28;20112;-88
2022/08/28 02:33:47;;;;;;;47.65;23.27;;;;;;;20.52;80.75;99879.69;4987071;28;20097;-87
2022/08/28 02:36:16;;;;;;;38.78;21.00;;;;;;;20.54;80.69;99878.50;4964059;28;20359;-88
2022/08/28 02:38:44;;;;;;;40.30;21.75;;;;;;;20.52;80.70;99875.13;4987528;28;20117;-86
2022/08/28 02:41:11;;;;;;;43.53;22.45;;;;;;;20.53;80.66;99873.25;4954935;28;20050;-87
2022/08/28 02:43:37;;;;;;;38.65;22.90;;;;;;;20.56;80.36;99873.72;4952981;28;20046;-88
2022/08/28 02:46:05;;;;;;;42.88;22.55;;;;;;;20.55;80.20;99869.34;4998712;28;20093;-88
2022/08/28 02:48:36;;;;;;;40.30;21.70;;;;;;;20.54;80.15;99873.09;4966758;28;20049;-88
2022/08/28 02:51:07;;;;;;;38.97;22.13;;;;;;;20.52;80.42;99867.03;4966643;28;20056;-84
2022/08/28 02:53:34;;;;;;;37.03;21.05;;;;;;;20.56;79.90;99859.41;4975344;28;20521;-85
2022/08/28 02:56:02;;;;;;;41.40;22.65;;;;;;;20.57;80.09;99858.38;4975658;28;20054;-84
2022/08/28 02:58:31;;;;;;;37.53;22.23;;;;;;;20.57;79.88;99852.97;4997748;28;20109;-84
2022/08/28 03:01:06;;;;;;;40.40;23.23;;;;;;;20.46;79.93;99850.81;5000163;28;20413;-85
2022/08/28 03:03:33;;;;;;;36.90;21.30;;;;;;;20.52;80.37;99860.81;4970052;28;20611;-84
2022/08/28 03:06:07;;;;;;;35.88;21.10;;;;;;;20.40;80.61;99855.13;4981728;28;20574;-85
2022/08/28 03:08:34;;;;;;;32.78;19.77;;;;;;;20.55;79.84;99855.84;4968827;28;20062;-85
2022/08/28 03:11:01;;;;;;;30.67;19.95;;;;;;;20.57;79.59;99859.19;4969824;28;20057;-85
2022/08/28 03:13:28;;;;;;;34.25;20.33;;;;;;;20.51;79.82;99861.84;4968687;28;20478;-85
2022/08/28 03:16:00;;;;;;;33.80;20.42;;;;;;;20.41;79.83;99858.69;5001810;28;20475;-85
2022/08/28 03:18:31;;;;;;;32.35;18.52;;;;;;;20.45;79.91;99855.38;4985660;28;20097;-84
2022/08/28 03:20:59;;;;;;;35.78;19.30;;;;;;;20.42;80.20;99849.56;5015854;28;20144;-86
2022/08/28 03:23:28;;;;;;;29.40;18.08;;;;;;;20.39;79.71;99850.78;4986122;28;20046;-84
2022/08/28 03:25:59;;;;;;;31.00;18.23;;;;;;;20.37;79.45;99859.06;4953842;28;20050;-84
2022/08/28 03:28:32;;;;;;;30.10;17.55;;;;;;;20.43;79.40;99852.06;4985603;28;20042;-84
2022/08/28 03:31:01;;;;;;;28.10;16.77;;;;;;;20.31;79.82;99854.47;4972392;28;20039;-83
2022/08/28 03:33:28;;;;;;;25.20;16.52;;;;;;;20.37;79.44;99850.13;4936531;28;20509;-84
2022/08/28 03:35:54;;;;;;;30.08;17.33;;;;;;;20.35;79.57;99861.16;4968966;28;20042;-84
2022/08/28 03:38:21;;;;;;;30.98;18.50;;;;;;;20.34;79.59;99855.94;4936813;28;20057;-84
2022/08/28 03:40:50;;;;;;;27.17;17.05;;;;;;;20.34;79.62;99864.03;4966602;28;20958;-84
2022/08/28 03:43:20;;;;;;;35.88;18.05;;;;;;;20.29;79.64;99863.78;4970140;28;20050;-84
2022/08/28 03:45:56;;;;;;;25.67;16.77;;;;;;;20.19;79.44;99863.31;4957985;28;20054;-84
2022/08/28 03:48:25;;;;;;;29.75;17.08;;;;;;;20.24;79.62;99867.06;4968645;28;20097;-84
2022/08/28 03:50:53;;;;;;;27.98;16.85;;;;;;;20.23;79.21;99864.59;4968328;28;20062;-85
2022/08/28 03:53:23;;;;;;;30.02;16.30;;;;;;;20.19;78.99;99868.72;4933650;28;20122;-84
2022/08/28 03:55:50;;;;;;;26.45;16.27;;;;;;;20.19;78.85;99868.72;4952070;28;20123;-84
2022/08/28 03:58:18;;;;;;;31.40;18.08;;;;;;;20.16;78.74;99865.38;4969387;28;20046;-84
2022/08/28 04:00:45;;;;;;;31.17;17.48;;;;;;;20.20;78.32;99864.97;4968914;28;20426;-84
2022/08/28 04:03:12;;;;;;;28.52;16.88;;;;;;;20.17;78.67;99879.66;4946119;28;20047;-84
2022/08/28 04:05:40;;;;;;;30.70;17.15;;;;;;;20.18;78.70;99878.66;4957722;28;20046;-84
2022/08/28 04:08:14;;;;;;;32.60;16.15;;;;;;;20.02;78.79;99877.06;4995941;28;20084;-85
2022/08/28 04:10:42;;;;;;;29.23;16.48;;;;;;;20.10;78.63;99879.66;4984210;28;20073;-84
2022/08/28 04:13:10;;;;;;;27.55;15.75;;;;;;;20.13;78.50;99881.13;4952693;28;20038;-84
2022/08/28 04:15:38;;;;;;;28.27;15.65;;;;;;;20.09;78.65;99882.53;4963820;28;20419;-85
2022/08/28 04:18:04;;;;;;;26.25;15.35;;;;;;;20.08;78.65;99887.09;4983071;28;20491;-84
2022/08/28 04:20:32;;;;;;;27.25;16.13;;;;;;;20.09;78.78;99882.53;4958646;28;20045;-84
2022/08/28 04:23:00;;;;;;;24.88;14.90;;;;;;;20.15;78.52;99881.75;4999834;28;20053;-85
2022/08/28 04:25:26;;;;;;;32.55;15.85;;;;;;;20.12;78.56;99885.69;5000204;28;20065;-84
2022/08/28 04:27:53;;;;;;;29.17;15.85;;;;;;;20.10;78.72;99886.91;4978323;28;20049;-85
2022/08/28 04:30:20;;;;;;;32.88;15.32;;;;;;;20.07;78.59;99885.41;4982702;28;20049;-85
2022/08/28 04:32:46;;;;;;;25.17;15.82;;;;;;;20.05;78.93;99894.72;5000222;28;20050;-84
2022/08/28 04:35:14;;;;;;;31.30;15.73;;;;;;;20.04;78.86;99890.38;4985537;28;20042;-84
2022/08/28 04:37:42;;;;;;;26.63;17.58;;;;;;;20.02;78.89;99893.25;4968161;28;20446;-84
2022/08/28 04:40:11;;;;;;;26.00;16.48;;;;;;;19.99;78.98;99892.81;4946833;28;20141;-85
2022/08/28 04:42:41;;;;;;;35.58;16.48;;;;;;;19.97;79.18;99897.56;4974063;28;20051;-84
2022/08/28 04:45:08;;;;;;;26.90;16.42;;;;;;;19.99;79.35;99904.44;4952585;28;20546;-84
2022/08/28 04:47:38;;;;;;;24.10;15.73;;;;;;;19.92;79.47;99904.41;4994655;28;20492;-85
2022/08/28 04:50:06;;;;;;;37.35;17.40;;;;;;;19.97;79.52;99898.38;4963587;28;20050;-84
2022/08/28 04:52:33;;;;;;;25.30;14.90;;;;;;;19.98;79.92;99893.84;5015982;28;20046;-85
2022/08/28 04:55:00;;;;;;;27.05;16.25;;;;;;;20.03;79.63;99896.81;4968597;28;20051;-84
2022/08/28 04:57:27;;;;;;;28.67;15.82;;;;;;;19.98;79.85;99897.38;4960967;28;20072;-84
2022/08/28 04:59:57;;;;;;;34.78;16.85;;;;;;;20.00;79.87;99905.25;4981222;28;20045;-84
2022/08/28 05:02:24;;;;;;;29.80;17.10;;;;;;;19.98;79.98;99896.56;4935126;28;20039;-84
2022/08/28 05:04:51;;;;;;;37.67;17.98;;;;;;;19.99;79.38;99900.91;4949316;28;20057;-84
2022/08/28 05:07:17;;;;;;;37.22;18.77;;;;;;;20.05;79.24;99903.66;4966945;28;20101;-85
2022/08/28 05:09:44;;;;;;;33.63;17.88;;;;;;;20.03;79.39;99899.50;4982689;28;20046;-85
2022/08/28 05:12:16;;;;;;;29.58;17.33;;;;;;;20.04;79.82;99909.25;4971004;28;20118;-85
2022/08/28 05:14:43;;;;;;;30.65;17.30;;;;;;;20.02;80.20;99912.13;4945704;28;20056;-84
2022/08/28 05:17:13;;;;;;;36.92;18.70;;;;;;;20.05;79.65;99910.91;5001259;28;20069;-84
2022/08/28 05:19:39;;;;;;;33.10;17.83;;;;;;;20.07;79.54;99914.22;4970813;28;20054;-84
2022/08/28 05:22:08;;;;;;;31.77;18.52;;;;;;;20.08;79.43;99913.22;4962177;28;20046;-84
2022/08/28 05:24:36;;;;;;;30.50;17.02;;;;;;;20.15;78.92;99919.50;4954758;28;20490;-84
2022/08/28 05:27:04;;;;;;;31.05;17.67;;;;;;;20.17;78.71;99920.97;4969073;28;20062;-85
2022/08/28 05:29:31;;;;;;;37.35;19.50;;;;;;;20.12;79.01;99918.03;4949993;28;20050;-84
2022/08/28 05:31:57;;;;;;;32.25;17.00;;;;;;;20.11;78.99;99913.66;4963941;28;20061;-85
2022/08/28 05:34:24;;;;;;;37.40;18.73;;;;;;;20.12;78.94;99922.56;4970532;28;20074;-85
2022/08/28 05:36:51;;;;;;;34.85;18.13;;;;;;;20.11;79.18;99923.59;5000079;28;20050;-84
2022/08/28 05:39:18;;;;;;;35.50;19.77;;;;;;;20.16;78.86;99931.94;4997959;28;20053;-84
2022/08/28 05:41:45;;;;;;;34.20;19.08;;;;;;;20.19;78.54;99928.84;4996302;28;20057;-84
2022/08/28 05:44:14;;;;;;;32.70;17.40;;;;;;;20.15;78.87;99927.59;4996072;28;20129;-84
2022/08/28 05:46:43;;;;;;;32.53;17.17;;;;;;;20.20;78.84;99925.13;4967977;28;20038;-84
2022/08/28 05:49:13;;;;;;;30.38;17.17;;;;;;;20.22;78.82;99930.31;4961182;28;20390;-84
2022/08/28 05:51:41;;;;;;;35.42;18.92;;;;;;;20.19;78.94;99930.72;4980621;28;20494;-85
2022/08/28 05:54:11;;;;;;;34.88;18.00;;;;;;;20.17;78.95;99931.75;4984429;28;20127;-85
2022/08/28 05:56:39;;;;;;;30.08;17.92;;;;;;;20.24;78.66;99934.50;4964462;28;20050;-84
2022/08/28 05:59:07;;;;;;;33.42;18.55;;;;;;;20.24;78.80;99939.88;4947301;28;20050;-85
2022/08/28 06:01:39;;;;;;;39.97;18.58;;;;;;;20.23;78.36;99932.84;4983229;28;20096;-85
2022/08/28 06:04:09;;;;;;;31.80;15.77;;;;;;;20.19;77.29;99945.03;4966756;28;20485;-84
2022/08/28 06:06:38;;;;;;;25.70;16.60;;;;;;;20.18;76.91;99948.75;4965291;28;20057;-84
2022/08/28 06:09:10;;;;;;;24.65;15.98;;;;;;;20.14;76.53;99955.56;4969227;28;20564;-84
2022/08/28 06:11:40;;;;;;;25.38;15.10;;;;;;;20.24;76.48;99947.13;4976403;28;20560;-84
2022/08/28 06:14:14;;;;;;;30.17;16.67;;;;;;;20.23;77.00;99945.47;4948791;28;20055;-84
2022/08/28 06:16:47;;;;;;;26.88;17.08;;;;;;;20.15;78.89;99941.06;4951139;28;20103;-85
2022/08/28 06:19:15;;;;;;;28.83;16.83;;;;;;;20.20;78.89;99943.16;4950931;28;20038;-84
2022/08/28 06:21:43;;;;;;;34.22;15.57;;;;;;;20.27;77.88;99935.97;4966889;28;20054;-85
2022/08/28 06:24:12;;;;;;;26.95;15.82;;;;;;;20.23;76.70;99935.53;4999053;28;20494;-84
2022/08/28 06:26:40;;;;;;;24.15;14.32;;;;;;;20.26;76.43;99937.81;4979750;28;20506;-84
2022/08/28 06:29:14;;;;;;;26.50;14.50;;;;;;;20.26;75.93;99940.53;4998988;28;20053;-85
2022/08/28 06:31:41;;;;;;;29.45;14.68;;;;;;;20.27;76.03;99944.03;4983109;28;20050;-84
2022/08/28 06:34:08;;;;;;;25.98;14.73;;;;;;;20.27;75.44;99950.25;4995201;28;20545;-84
2022/08/28 06:36:38;;;;;;;26.33;15.18;;;;;;;20.26;75.79;99947.78;4980011;28;20053;-85
2022/08/28 06:39:05;;;;;;;26.77;15.25;;;;;;;20.31;75.91;99950.72;4995374;28;20050;-85
2022/08/28 06:41:33;;;;;;;32.03;16.45;;;;;;;20.30;76.03;99947.19;4982921;28;20035;-84
2022/08/28 06:43:59;;;;;;;27.02;15.88;;;;;;;20.27;76.78;99950.25;4961985;28;20051;-84
2022/08/28 06:46:29;;;;;;;33.45;16.52;;;;;;;20.27;77.22;99958.34;4951601;28;20060;-84
2022/08/28 06:48:55;;;;;;;26.88;15.40;;;;;;;20.32;77.15;99957.78;4933908;28;20050;-85
2022/08/28 06:51:23;;;;;;;31.38;16.00;;;;;;;20.29;77.09;99953.59;4977411;28;20050;-83
2022/08/28 06:53:50;;;;;;;25.83;15.85;;;;;;;20.28;77.85;99954.66;4965862;28;20096;-83
2022/08/28 06:56:19;;;;;;;32.28;14.40;;;;;;;20.31;77.61;99950.72;4950455;28;20046;-84
2022/08/28 06:58:55;;;;;;;28.02;16.17;;;;;;;20.30;76.54;99958.00;4995871;28;20118;-84
2022/08/28 07:01:33;;;;;;;29.52;15.70;;;;;;;20.30;76.37;99957.13;4977758;28;20052;-84
2022/08/28 07:04:04;;;;;;;27.55;15.30;;;;;;;20.30;77.38;99966.06;4984017;28;20144;-84
2022/08/28 07:06:35;;;;;;;25.55;15.52;;;;;;;20.32;77.10;99963.16;4990990;28;20042;-84
2022/08/28 07:09:04;;;;;;;23.17;13.55;;;;;;;20.37;75.56;99966.09;4982193;28;20046;-87
2022/08/28 07:11:32;;;;;;;23.60;15.15;;;;;;;20.36;76.22;99965.28;4952643;28;20049;-84
2022/08/28 07:14:01;;;;;;;29.25;15.18;;;;;;;20.35;76.20;99974.41;5001304;28;20056;-85
2022/08/28 07:16:33;;;;;;;27.50;14.55;;;;;;;20.35;75.69;99973.56;4990874;28;20864;-84
2022/08/28 07:19:04;;;;;;;28.33;14.57;;;;;;;20.40;76.40;99973.81;4967789;28;20046;-84
2022/08/28 07:21:36;;;;;;;22.80;13.98;;;;;;;20.32;75.05;99972.09;4984589;28;20054;-84
2022/08/28 07:24:07;;;;;;;26.00;15.52;;;;;;;20.42;76.08;99979.84;5000586;28;20042;-84
2022/08/28 07:26:39;;;;;;;26.35;15.63;;;;;;;20.43;77.18;99980.66;5006848;28;20047;-84
2022/08/28 07:29:09;;;;;;;28.05;14.18;;;;;;;20.38;76.04;99976.72;5009305;28;20421;-85
2022/08/28 07:31:41;;;;;;;22.02;13.88;;;;;;;20.44;75.23;99972.38;4999530;28;20116;-83
2022/08/28 07:34:09;;;;;;;25.23;13.52;;;;;;;20.54;74.93;99972.03;4986033;28;20045;-82
2022/08/28 07:36:37;;;;;;;23.23;13.45;;;;;;;20.49;74.75;99980.72;5004368;28;20049;-82
2022/08/28 07:39:05;;;;;;;27.52;14.05;;;;;;;20.51;75.05;99984.06;4985766;28;20478;-83
2022/08/28 07:41:36;;;;;;;25.75;14.35;;;;;;;20.53;74.88;99976.63;4952771;28;20050;-83
2022/08/28 07:46:52;;;;;;;24.77;13.73;;;;;;;20.41;74.88;99986.28;4987367;28;20038;-83
2022/08/28 07:49:19;;;;;;;21.08;13.38;;;;;;;20.49;74.68;99985.28;4984989;28;20061;-83
2022/08/28 07:51:45;;;;;;;26.92;13.18;;;;;;;20.51;74.58;99986.75;4986757;28;20122;-83
2022/08/28 07:54:13;;;;;;;24.98;14.45;;;;;;;20.56;74.49;99988.91;4941168;28;20053;-82
2022/08/28 07:56:44;;;;;;;24.10;14.18;;;;;;;20.57;74.32;99994.09;4961130;28;20046;-84
2022/08/28 07:59:11;;;;;;;26.48;13.70;;;;;;;20.58;74.36;100001.16;4940901;28;20459;-86
2022/08/28 08:01:45;;;;;;;20.85;14.23;;;;;;;20.63;73.89;99991.63;4982263;28;20047;-83
2022/08/28 08:04:14;;;;;;;31.20;14.27;;;;;;;20.66;74.38;99996.63;5016703;28;20104;-83
2022/08/28 08:06:45;;;;;;;25.90;15.75;;;;;;;20.74;74.47;100004.59;4981191;28;20042;-83
2022/08/28 08:09:15;;;;;;;23.88;12.70;;;;;;;20.75;73.77;100004.38;4945111;28;20502;-85
2022/08/28 08:11:43;;;;;;;30.15;14.25;;;;;;;20.75;74.16;100012.47;4933144;28;20592;-83
2022/08/28 08:14:38;;;;;;;27.10;12.68;;;;;;;20.69;74.25;100013.28;4918877;28;20054;-86
2022/08/28 08:17:06;;;;;;;29.25;14.70;;;;;;;20.76;73.86;100007.91;4889429;28;20114;-86
2022/08/28 08:19:33;;;;;;;28.58;13.82;;;;;;;20.84;73.78;100020.41;4917930;28;20047;-85
2022/08/28 08:22:01;;;;;;;23.42;13.15;;;;;;;20.71;73.46;100022.00;4937731;28;20047;-86
2022/08/28 08:24:29;;;;;;;24.42;13.25;;;;;;;20.79;73.13;100016.47;4922043;28;20390;-85
2022/08/28 08:27:00;;;;;;;24.92;12.05;;;;;;;20.84;72.72;100021.25;4969706;28;20051;-84
2022/08/28 08:29:34;;;;;;;22.02;13.07;;;;;;;20.92;73.17;100018.41;4929290;28;20050;-85
2022/08/28 08:32:05;;;;;;;41.92;15.52;;;;;;;20.96;73.34;100024.22;4922959;28;20070;-85
2022/08/28 08:34:35;;;;;;;24.52;13.88;;;;;;;20.87;73.28;100030.84;4909433;28;20123;-88
2022/08/28 08:37:02;;;;;;;24.63;14.48;;;;;;;20.93;73.23;100028.16;4946840;28;20046;-87
2022/08/28 08:39:29;;;;;;;29.98;13.88;;;;;;;20.83;73.74;100032.25;4947058;28;20098;-86
2022/08/28 08:42:02;;;;;;;28.17;12.80;;;;;;;20.83;72.11;100038.47;4913953;28;20452;-87
2022/08/28 08:45:22;;;;;;;22.55;13.80;;;;;;;20.69;72.77;100039.44;4886209;28;20055;-87
2022/08/28 08:47:50;;;;;;;26.20;13.35;;;;;;;20.87;73.16;100036.22;4885560;28;20054;-82
2022/08/28 08:50:22;;;;;;;26.13;12.75;;;;;;;20.88;72.79;100027.91;4950948;28;20082;-83
2022/08/28 08:53:08;;;;;;;25.13;13.65;;;;;;;20.74;72.58;100040.50;4971644;28;20061;-82
2022/08/28 08:55:41;;;;;;;29.48;13.75;;;;;;;20.85;72.63;100038.28;4923120;28;20055;-83
2022/08/28 08:58:11;;;;;;;24.10;12.48;;;;;;;20.88;73.01;100041.41;4918564;28;20050;-82
2022/08/28 09:00:53;;;;;;;25.30;13.27;;;;;;;20.93;72.65;100035.44;4894902;28;20079;-83
2022/08/28 09:03:25;;;;;;;30.02;13.65;;;;;;;21.05;72.51;100041.13;4895257;28;20044;-85
2022/08/28 09:05:58;;;;;;;26.80;13.32;;;;;;;21.01;71.94;100046.06;4863083;28;20054;-85
2022/08/28 09:08:37;;;;;;;26.27;14.48;;;;;;;21.01;72.38;100043.34;4906775;28;20048;-86
2022/08/28 09:11:39;;;;;;;29.90;15.00;;;;;;;21.11;72.11;100051.09;4905865;29;20043;-85
2022/08/28 09:14:19;;;;;;;22.73;13.25;;;;;;;21.14;72.89;100048.84;4892196;28;20051;-85
2022/08/28 09:16:52;;;;;;;29.95;14.25;;;;;;;21.25;72.03;100055.56;4914123;28;20059;-87
2022/08/28 09:19:20;;;;;;;25.77;13.82;;;;;;;21.25;71.28;100053.69;4910635;28;20055;-85
2022/08/28 09:21:48;;;;;;;28.40;14.68;;;;;;;21.20;71.33;100050.75;4964808;28;20050;-86
2022/08/28 09:24:22;;;;;;;29.92;15.05;;;;;;;21.16;70.73;100060.25;4964620;28;20062;-85
2022/08/28 09:27:02;;;;;;;33.42;16.15;;;;;;;21.20;70.95;100049.91;4969375;28;20046;-85
2022/08/28 09:29:41;;;;;;;29.33;14.82;;;;;;;21.28;70.52;100052.44;4989937;28;20047;-84
2022/08/28 09:32:25;;;;;;;28.92;15.07;;;;;;;21.29;70.30;100056.81;4960508;28;20050;-84
2022/08/28 09:35:05;;;;;;;30.75;15.68;;;;;;;21.31;71.31;100053.91;4950536;28;20049;-84
2022/08/28 09:37:37;;;;;;;24.25;14.95;;;;;;;21.45;70.50;100045.72;4951411;28;20158;-85
2022/08/28 09:43:25;;;;;;;25.80;14.80;;;;;;;21.44;71.08;100056.69;4979221;28;20042;-83
2022/08/28 09:43:43;;;;;;;24.30;14.13;;;;;;;21.50;70.59;100052.34;4898748;28;20053;-84
2022/08/28 09:50:25;;;;;;;28.35;15.05;;;;;;;21.73;70.61;100044.78;4953846;28;20085;-84
2022/08/28 09:52:55;;;;;;;29.35;16.30;;;;;;;21.74;70.29;100046.41;4984536;28;20505;-85
2022/08/28 09:55:36;;;;;;;26.17;14.13;;;;;;;21.72;70.63;100053.06;4968781;28;20046;-84
2022/08/28 09:58:09;;;;;;;26.65;14.95;;;;;;;21.74;69.44;100046.41;4960364;28;20046;-83
2022/08/28 10:01:27;;;;;;;28.15;13.38;;;;;;;21.75;70.08;100036.44;4998665;28;20050;-83
2022/08/28 10:04:14;;;;;;;28.63;16.02;;;;;;;21.72;68.98;100039.56;4922000;28;20125;-84
2022/08/28 10:06:50;;;;;;;30.33;15.10;;;;;;;21.78;69.42;100042.28;4947581;28;20040;-83
2022/08/28 10:09:42;;;;;;;27.75;14.10;;;;;;;21.77;69.21;100040.59;4934618;28;20043;-83
2022/08/28 10:12:50;;;;;;;32.00;14.60;;;;;;;21.80;68.45;100036.66;4900105;28;20067;-83
2022/08/28 10:15:29;;;;;;;33.67;16.83;;;;;;;21.89;69.40;100035.44;4878310;28;20044;-83
2022/08/28 10:18:27;;;;;;;23.75;14.55;;;;;;;21.93;69.23;100035.84;4927579;28;20062;-83
2022/08/28 10:21:08;;;;;;;22.67;13.50;;;;;;;22.03;69.15;100034.44;4897951;28;20055;-83
2022/08/28 10:24:25;;;;;;;25.73;13.93;;;;;;;21.97;67.75;100043.34;4906662;28;20063;-83
2022/08/28 10:27:18;;;;;;;24.10;13.90;;;;;;;21.99;67.52;100044.00;4861064;29;20048;-82
2022/08/28 10:30:00;;;;;;;27.98;15.02;;;;;;;21.98;67.70;100039.63;4927446;28;20047;-84
2022/08/28 10:33:23;;;;;;;23.00;14.60;;;;;;;21.99;67.27;100048.56;4925657;28;20047;-85
2022/08/28 10:36:11;;;;;;;21.80;12.85;;;;;;;22.02;67.65;100045.44;4882695;28;20047;-84
2022/08/28 10:39:22;;;;;;;21.52;13.55;;;;;;;22.04;67.12;100037.97;4844411;28;20510;-84
2022/08/28 10:41:57;;;;;;;19.77;12.95;;;;;;;22.11;67.13;100039.66;4954540;28;20104;-83
2022/08/28 10:44:54;;;;;;;23.55;12.63;;;;;;;22.11;65.59;100039.66;4968558;28;20046;-86
2022/08/28 10:47:22;;;;;;;26.98;13.75;;;;;;;22.17;65.64;100035.28;4933464;28;23818;-85
2022/08/28 10:49:53;;;;;;;20.20;13.27;;;;;;;22.22;65.55;100030.09;4968346;28;20069;-84
2022/08/28 10:52:27;;;;;;;26.90;12.88;;;;;;;22.23;65.98;100029.06;4984472;28;20126;-84
2022/08/28 10:55:19;;;;;;;19.27;11.32;;;;;;;22.28;66.28;100033.84;4987056;28;20049;-84
2022/08/28 10:57:56;;;;;;;23.48;13.63;;;;;;;22.33;65.92;100029.47;4954078;28;20038;-84
2022/08/28 11:00:25;;;;;;;21.98;11.70;;;;;;;22.36;65.54;100032.81;4971016;28;20438;-85
2022/08/28 11:03:05;;;;;;;19.98;11.85;;;;;;;22.38;65.13;100030.75;4971331;28;20058;-87
2022/08/28 11:05:51;;;;;;;18.50;11.45;;;;;;;22.50;65.16;100024.50;4964026;28;20046;-84
2022/08/28 11:08:26;;;;;;;21.08;11.60;;;;;;;22.56;62.82;100025.53;5020655;28;20046;-86
2022/08/28 11:10:57;;;;;;;20.75;11.50;;;;;;;22.63;63.80;100020.94;4997212;28;20038;-85
2022/08/28 11:13:43;;;;;;;19.00;11.45;;;;;;;22.60;62.22;100018.66;4987787;28;20046;-85
2022/08/28 11:16:18;;;;;;;27.48;13.05;;;;;;;22.63;61.29;100020.94;4981913;28;20073;-85
2022/08/28 11:23:28;;;;;;;18.65;10.90;;;;;;;22.65;62.77;100028.88;4927573;28;20051;-85
2022/08/28 11:30:31;;;;;;;20.65;12.18;;;;;;;22.69;62.82;100021.97;4914297;28;20404;-84
2022/08/28 11:33:01;;;;;;;24.23;12.40;;;;;;;22.70;63.23;100029.06;4946670;28;20118;-84
2022/08/28 11:35:45;;;;;;;18.33;11.30;;;;;;;22.67;63.17;100024.03;4961020;28;20047;-84
2022/08/28 11:38:41;;;;;;;18.20;11.70;;;;;;;22.73;62.85;100023.22;4930580;28;20519;-81
2022/08/28 11:41:26;;;;;;;23.10;11.18;;;;;;;22.80;62.57;100018.63;4876375;28;20134;-83
2022/08/28 11:44:09;;;;;;;21.92;12.35;;;;;;;22.75;62.48;100024.69;4958786;28;20625;-82
2022/08/28 11:46:50;;;;;;;18.75;11.70;;;;;;;22.85;62.72;100021.53;4920926;28;20055;-84
2022/08/28 11:49:25;;;;;;;17.45;10.60;;;;;;;22.86;62.39;100020.50;4927549;28;20116;-82
2022/08/28 11:52:02;;;;;;;20.20;10.88;;;;;;;22.87;61.10;100014.03;4980920;28;20108;-82
2022/08/28 11:54:42;;;;;;;18.52;10.75;;;;;;;22.96;61.33;100015.47;5017488;28;20075;-85
2022/08/28 11:57:21;;;;;;;18.27;10.32;;;;;;;23.03;61.46;100010.06;4979814;28;20057;-86
2022/08/28 11:59:58;;;;;;;20.45;11.27;;;;;;;23.10;61.16;100013.59;5002375;28;20043;-82